createdAt,value
2023-04-14T00:00:12.824Z,71.33
2023-04-14T00:01:35.597Z,71.81
2023-04-14T00:02:38.747Z,71.77
2023-04-14T00:03:42.348Z,71.87
2023-04-14T00:04:52.191Z,72.15
2023-04-14T00:05:55.113Z,72.45
2023-04-14T00:07:00.118Z,72.37
2023-04-14T00:08:03.070Z,72.25
2023-04-14T00:09:05.944Z,72.52
2023-04-14T00:10:09.078Z,72.39
2023-04-14T00:11:11.963Z,72.66
2023-04-14T00:12:14.948Z,72.59
2023-04-14T00:13:17.818Z,72.58
2023-04-14T00:14:20.681Z,72.97
2023-04-14T00:15:23.798Z,72.71
2023-04-14T00:16:26.811Z,73.24
2023-04-14T00:17:31.121Z,73.11
2023-04-14T00:18:34.285Z,72.64
2023-04-14T00:19:37.116Z,72.71
2023-04-14T00:20:39.892Z,72.83
2023-04-14T00:21:42.817Z,73.01
2023-04-14T00:22:45.713Z,73.42
2023-04-14T00:23:48.978Z,73.36
2023-04-14T00:24:52.113Z,73.50
2023-04-14T00:25:55.046Z,73.68
2023-04-14T00:26:57.907Z,73.41
2023-04-14T00:28:00.922Z,73.41
2023-04-14T00:29:03.976Z,74.05
2023-04-14T00:30:07.657Z,74.15
2023-04-14T00:31:11.448Z,73.70
2023-04-14T00:32:14.466Z,73.84
2023-04-14T00:33:17.345Z,74.02
2023-04-14T00:34:20.123Z,74.49
2023-04-14T00:35:24.530Z,74.68
2023-04-14T00:36:27.388Z,74.57
2023-04-14T00:37:31.038Z,74.79
2023-04-14T00:38:35.779Z,74.79
2023-04-14T00:39:39.045Z,75.01
2023-04-14T00:40:41.827Z,75.11
2023-04-14T00:41:44.579Z,75.03
2023-04-14T00:42:47.972Z,75.34
2023-04-14T00:43:54.650Z,75.74
2023-04-14T00:44:57.485Z,75.49
2023-04-14T00:46:00.936Z,75.64
2023-04-14T00:47:04.213Z,75.46
2023-04-14T00:48:07.588Z,75.90
2023-04-14T00:49:11.388Z,75.66
2023-04-14T00:50:16.918Z,75.77
2023-04-14T00:51:19.766Z,75.62
2023-04-14T00:52:24.816Z,75.57
2023-04-14T00:53:27.859Z,75.48
2023-04-14T00:54:32.631Z,75.87
2023-04-14T00:55:36.364Z,75.66
2023-04-14T00:56:39.438Z,75.82
2023-04-14T00:57:42.872Z,75.60
2023-04-14T00:58:46.524Z,75.75
2023-04-14T00:59:49.560Z,75.58
2023-04-14T01:00:55.689Z,76.00
2023-04-14T01:02:00.937Z,75.94
2023-04-14T01:03:04.355Z,76.25
2023-04-14T01:04:08.150Z,76.37
2023-04-14T01:05:12.778Z,76.50
2023-04-14T01:06:15.900Z,76.41
2023-04-14T01:07:19.867Z,76.55
2023-04-14T01:08:22.958Z,76.56
2023-04-14T01:09:25.958Z,76.44
2023-04-14T01:10:34.333Z,76.19
2023-04-14T01:12:00.530Z,76.13
2023-04-14T01:13:13.814Z,76.12
2023-04-14T01:14:31.738Z,76.11
2023-04-14T01:15:47.697Z,76.38
2023-04-14T01:16:55.294Z,76.53
2023-04-14T01:18:10.283Z,76.07
2023-04-14T01:19:54.850Z,75.98
2023-04-14T01:21:05.534Z,76.10
2023-04-14T01:22:10.956Z,75.82
2023-04-14T01:23:21.661Z,76.09
2023-04-14T01:24:36.352Z,75.96
2023-04-14T01:26:00.380Z,76.18
2023-04-14T01:27:23.489Z,75.96
2023-04-14T01:29:03.858Z,75.85
2023-04-14T01:31:48.748Z,77.28
2023-04-14T01:32:56.534Z,76.58
2023-04-14T01:34:34.928Z,76.02
2023-04-14T01:35:42.725Z,75.91
2023-04-14T01:37:06.777Z,76.23
2023-04-14T01:38:19.361Z,76.37
2023-04-14T01:39:26.716Z,76.81
2023-04-14T01:40:33.633Z,76.44
2023-04-14T01:41:42.776Z,76.30
2023-04-14T01:42:52.191Z,76.23
2023-04-14T01:43:59.448Z,76.23
2023-04-14T01:45:11.948Z,76.53
2023-04-14T01:46:17.728Z,76.20
2023-04-14T01:47:22.240Z,76.46
2023-04-14T01:48:26.535Z,76.43
2023-04-14T01:49:33.765Z,76.51
2023-04-14T01:50:37.987Z,76.66
2023-04-14T01:51:44.129Z,76.78
2023-04-14T01:52:51.623Z,77.11
2023-04-14T01:53:57.941Z,76.82
2023-04-14T01:55:06.747Z,76.98
2023-04-14T01:56:11.355Z,77.14
2023-04-14T01:57:16.449Z,77.00
2023-04-14T01:58:23.255Z,76.84
2023-04-14T01:59:29.627Z,76.92
2023-04-14T02:00:36.080Z,76.86
2023-04-14T02:01:40.956Z,77.10
2023-04-14T02:02:50.316Z,77.20
2023-04-14T02:03:53.529Z,77.01
2023-04-14T02:04:59.695Z,76.95
2023-04-14T02:06:04.773Z,76.98
2023-04-14T02:07:12.589Z,76.91
2023-04-14T02:08:17.928Z,76.96
2023-04-14T02:09:24.905Z,77.20
2023-04-14T02:10:29.129Z,77.44
2023-04-14T02:11:34.738Z,77.28
2023-04-14T02:12:41.335Z,77.27
2023-04-14T02:13:45.937Z,77.37
2023-04-14T02:14:51.195Z,77.37
2023-04-14T02:15:55.064Z,77.31
2023-04-14T02:16:59.776Z,77.17
2023-04-14T02:18:05.823Z,77.30
2023-04-14T02:19:09.600Z,77.47
2023-04-14T02:20:14.700Z,77.33
2023-04-14T02:21:20.008Z,77.44
2023-04-14T02:22:22.937Z,77.18
2023-04-14T02:23:25.847Z,77.15
2023-04-14T02:24:31.114Z,77.11
2023-04-14T02:25:41.103Z,77.22
2023-04-14T02:26:56.137Z,77.06
2023-04-14T02:28:03.883Z,77.10
2023-04-14T02:29:13.607Z,76.99
2023-04-14T02:30:24.689Z,76.98
2023-04-14T02:31:32.561Z,77.25
2023-04-14T02:32:37.516Z,77.11
2023-04-14T02:33:44.048Z,77.24
2023-04-14T02:34:58.939Z,77.15
2023-04-14T02:36:06.640Z,77.19
2023-04-14T02:37:12.762Z,77.33
2023-04-14T02:38:44.912Z,77.19
2023-04-14T02:39:53.792Z,77.64
2023-04-14T02:40:59.841Z,77.35
2023-04-14T02:42:10.955Z,77.56
2023-04-14T02:43:19.487Z,77.74
2023-04-14T02:44:31.182Z,77.56
2023-04-14T02:45:38.511Z,77.66
2023-04-14T02:46:46.061Z,77.56
2023-04-14T02:47:54.581Z,77.77
2023-04-14T02:49:01.892Z,77.82
2023-04-14T02:50:10.183Z,77.90
2023-04-14T02:51:15.504Z,77.94
2023-04-14T02:52:22.032Z,77.89
2023-04-14T02:53:26.629Z,77.93
2023-04-14T02:54:41.626Z,77.99
2023-04-14T02:55:50.532Z,77.87
2023-04-14T02:56:57.467Z,77.52
2023-04-14T02:58:01.190Z,77.39
2023-04-14T02:59:06.296Z,77.50
2023-04-14T03:00:11.244Z,77.29
2023-04-14T03:01:19.544Z,77.33
2023-04-14T03:02:24.885Z,77.28
2023-04-14T03:03:37.702Z,77.24
2023-04-14T03:04:42.405Z,77.23
2023-04-14T03:05:52.083Z,77.17
2023-04-14T03:06:57.038Z,77.36
2023-04-14T03:08:00.907Z,77.28
2023-04-14T03:09:04.998Z,77.16
2023-04-14T03:10:09.726Z,77.30
2023-04-14T03:11:14.775Z,77.11
2023-04-14T03:12:19.391Z,77.08
2023-04-14T03:13:28.359Z,77.14
2023-04-14T03:14:31.838Z,77.28
2023-04-14T03:15:37.631Z,77.49
2023-04-14T03:16:41.373Z,77.65
2023-04-14T03:17:48.830Z,77.61
2023-04-14T03:18:54.585Z,77.56
2023-04-14T03:19:58.660Z,77.45
2023-04-14T03:21:02.565Z,77.43
2023-04-14T03:22:06.802Z,77.52
2023-04-14T03:23:12.504Z,77.53
2023-04-14T03:24:24.721Z,77.55
2023-04-14T03:25:29.359Z,77.56
2023-04-14T03:26:34.859Z,77.70
2023-04-14T03:27:40.298Z,77.71
2023-04-14T03:28:43.699Z,77.46
2023-04-14T03:29:51.913Z,77.40
2023-04-14T03:30:56.936Z,77.47
2023-04-14T03:32:06.780Z,77.46
2023-04-14T03:33:13.164Z,77.44
2023-04-14T03:34:17.836Z,77.49
2023-04-14T03:35:23.335Z,77.48
2023-04-14T03:36:27.383Z,77.74
2023-04-14T03:37:35.893Z,77.93
2023-04-14T03:38:42.203Z,77.81
2023-04-14T03:39:50.938Z,77.96
2023-04-14T03:40:59.142Z,77.90
2023-04-14T03:42:03.762Z,77.89
2023-04-14T03:43:12.947Z,77.83
2023-04-14T03:44:19.332Z,77.78
2023-04-14T03:45:26.612Z,77.94
2023-04-14T03:46:31.350Z,78.21
2023-04-14T03:47:35.919Z,78.15
2023-04-14T03:48:43.670Z,78.14
2023-04-14T03:49:50.466Z,78.29
2023-04-14T03:50:55.224Z,78.19
2023-04-14T03:52:05.246Z,78.02
2023-04-14T03:53:14.841Z,78.11
2023-04-14T03:54:19.371Z,78.22
2023-04-14T03:55:23.492Z,78.16
2023-04-14T03:56:27.665Z,78.16
2023-04-14T03:57:32.609Z,78.02
2023-04-14T03:58:36.957Z,78.18
2023-04-14T03:59:42.499Z,78.18
2023-04-14T04:00:47.691Z,78.20
2023-04-14T04:01:52.764Z,78.36
2023-04-14T04:02:57.638Z,78.22
2023-04-14T04:04:03.085Z,78.20
2023-04-14T04:05:09.766Z,78.06
2023-04-14T04:06:13.167Z,77.97
2023-04-14T04:07:19.465Z,78.02
2023-04-14T04:08:24.132Z,78.16
2023-04-14T04:09:28.370Z,78.20
2023-04-14T04:10:35.104Z,78.04
2023-04-14T04:11:39.914Z,77.92
2023-04-14T04:12:45.223Z,77.84
2023-04-14T04:13:49.376Z,77.80
2023-04-14T04:14:52.495Z,77.86
2023-04-14T04:15:55.754Z,77.92
2023-04-14T04:17:04.337Z,77.99
2023-04-14T04:18:08.932Z,78.21
2023-04-14T04:19:14.103Z,77.96
2023-04-14T04:20:18.782Z,78.10
2023-04-14T04:21:22.901Z,77.93
2023-04-14T04:22:27.628Z,77.94
2023-04-14T04:23:33.553Z,77.97
2023-04-14T04:24:38.823Z,78.11
2023-04-14T04:25:42.409Z,78.10
2023-04-14T04:26:54.301Z,78.16
2023-04-14T04:27:57.528Z,78.01
2023-04-14T04:29:00.898Z,77.96
2023-04-14T04:30:08.237Z,78.08
2023-04-14T04:31:14.346Z,78.21
2023-04-14T04:32:18.119Z,78.28
2023-04-14T04:33:22.006Z,78.21
2023-04-14T04:34:26.759Z,78.21
2023-04-14T04:35:30.631Z,78.49
2023-04-14T04:36:34.752Z,78.65
2023-04-14T04:37:38.522Z,78.49
2023-04-14T04:38:43.094Z,78.33
2023-04-14T04:39:48.659Z,78.37
2023-04-14T04:40:52.360Z,78.35
2023-04-14T04:42:06.887Z,78.43
2023-04-14T04:43:09.750Z,78.34
2023-04-14T04:44:12.956Z,78.26
2023-04-14T04:45:40.180Z,78.20
2023-04-14T04:46:52.119Z,78.42
2023-04-14T04:47:58.149Z,78.52
2023-04-14T04:49:01.217Z,78.34
2023-04-14T04:50:04.659Z,78.26
2023-04-14T04:51:08.674Z,78.32
2023-04-14T04:52:11.510Z,78.36
2023-04-14T04:53:14.727Z,78.48
2023-04-14T04:54:18.277Z,78.33
2023-04-14T04:55:21.067Z,78.23
2023-04-14T04:56:24.118Z,78.15
2023-04-14T04:57:26.999Z,78.20
2023-04-14T04:58:29.938Z,78.20
2023-04-14T04:59:33.355Z,78.30
2023-04-14T05:00:36.229Z,78.27
2023-04-14T05:01:39.209Z,78.22
2023-04-14T05:02:42.216Z,78.13
2023-04-14T05:03:46.291Z,78.09
2023-04-14T05:04:49.204Z,78.01
2023-04-14T05:05:52.323Z,77.95
2023-04-14T05:06:55.295Z,77.84
2023-04-14T05:07:58.282Z,77.79
2023-04-14T05:09:01.663Z,77.77
2023-04-14T05:10:05.691Z,77.78
2023-04-14T05:11:08.750Z,77.79
2023-04-14T05:12:11.917Z,77.77
2023-04-14T05:13:14.823Z,77.73
2023-04-14T05:14:17.682Z,77.67
2023-04-14T05:15:20.644Z,77.56
2023-04-14T05:16:23.941Z,77.51
2023-04-14T05:17:27.361Z,77.56
2023-04-14T05:18:31.411Z,77.63
2023-04-14T05:19:34.297Z,77.54
2023-04-14T05:20:37.477Z,77.55
2023-04-14T05:21:40.463Z,77.59
2023-04-14T05:22:43.339Z,77.65
2023-04-14T05:23:46.876Z,77.60
2023-04-14T05:24:50.650Z,77.44
2023-04-14T05:26:01.264Z,77.25
2023-04-14T05:27:14.220Z,77.05
2023-04-14T05:28:17.615Z,76.82
2023-04-14T05:29:20.764Z,76.46
2023-04-14T05:30:24.366Z,76.27
2023-04-14T05:31:27.542Z,76.49
2023-04-14T05:32:31.132Z,76.42
2023-04-14T05:33:37.370Z,76.41
2023-04-14T05:34:41.348Z,76.29
2023-04-14T05:35:47.472Z,76.26
2023-04-14T05:36:50.400Z,76.11
2023-04-14T05:37:53.207Z,75.75
2023-04-14T05:38:56.318Z,75.62
2023-04-14T05:39:59.143Z,75.55
2023-04-14T05:41:02.496Z,75.58
2023-04-14T05:42:05.679Z,75.56
2023-04-14T05:43:08.858Z,75.49
2023-04-14T05:44:11.812Z,75.35
2023-04-14T05:45:14.861Z,75.19
2023-04-14T05:46:17.970Z,75.05
2023-04-14T05:47:20.820Z,75.07
2023-04-14T05:48:25.179Z,74.97
2023-04-14T05:49:28.613Z,75.01
2023-04-14T05:50:33.449Z,74.96
2023-04-14T05:51:36.374Z,74.95
2023-04-14T05:52:39.246Z,74.76
2023-04-14T05:53:42.084Z,74.63
2023-04-14T05:54:45.324Z,74.40
2023-04-14T05:55:51.007Z,74.14
2023-04-14T05:56:53.810Z,73.95
2023-04-14T05:57:56.558Z,73.78
2023-04-14T05:58:59.595Z,73.50
2023-04-14T06:00:02.568Z,73.41
2023-04-14T06:01:15.743Z,73.50
2023-04-14T06:02:18.947Z,73.46
2023-04-14T06:03:22.239Z,73.40
2023-04-14T06:04:25.625Z,73.31
2023-04-14T06:05:28.945Z,73.26
2023-04-14T06:06:32.745Z,73.14
2023-04-14T06:07:36.073Z,73.21
2023-04-14T06:08:38.942Z,73.35
2023-04-14T06:09:42.853Z,73.59
2023-04-14T06:10:46.396Z,73.70
2023-04-14T06:11:49.269Z,73.63
2023-04-14T06:12:52.207Z,73.60
2023-04-14T06:13:54.989Z,73.50
2023-04-14T06:14:57.934Z,73.48
2023-04-14T06:16:01.113Z,73.44
2023-04-14T06:17:04.156Z,73.38
2023-04-14T06:18:07.118Z,73.48
2023-04-14T06:19:10.927Z,73.55
2023-04-14T06:20:14.552Z,73.71
2023-04-14T06:21:17.791Z,73.82
2023-04-14T06:22:20.710Z,73.95
2023-04-14T06:23:24.720Z,74.14
2023-04-14T06:24:27.620Z,74.25
2023-04-14T06:25:31.118Z,74.12
2023-04-14T06:26:34.091Z,74.02
2023-04-14T06:27:37.505Z,73.95
2023-04-14T06:28:41.475Z,73.90
2023-04-14T06:29:46.352Z,73.90
2023-04-14T06:30:49.790Z,73.88
2023-04-14T06:31:52.944Z,73.81
2023-04-14T06:32:56.339Z,73.79
2023-04-14T06:33:59.221Z,73.83
2023-04-14T06:35:05.000Z,73.95
2023-04-14T06:36:08.381Z,74.00
2023-04-14T06:37:11.345Z,73.92
2023-04-14T06:38:14.420Z,73.78
2023-04-14T06:39:17.257Z,73.78
2023-04-14T06:40:20.174Z,74.09
2023-04-14T06:41:23.158Z,74.09
2023-04-14T06:42:26.420Z,74.21
2023-04-14T06:43:29.301Z,74.25
2023-04-14T06:44:32.180Z,74.19
2023-04-14T06:45:35.037Z,74.00
2023-04-14T06:46:38.034Z,73.91
2023-04-14T06:47:41.208Z,74.04
2023-04-14T06:48:44.141Z,74.04
2023-04-14T06:49:47.071Z,73.96
2023-04-14T06:50:56.790Z,73.82
2023-04-14T06:51:59.672Z,73.68
2023-04-14T06:53:05.896Z,73.60
2023-04-14T06:54:08.920Z,73.48
2023-04-14T06:55:11.822Z,73.39
2023-04-14T06:56:14.714Z,73.43
2023-04-14T06:57:17.769Z,73.44
2023-04-14T06:58:21.038Z,73.42
2023-04-14T06:59:27.935Z,73.52
2023-04-14T07:00:30.736Z,73.61
2023-04-14T07:01:33.845Z,73.57
2023-04-14T07:02:37.069Z,73.52
2023-04-14T07:03:40.456Z,73.68
2023-04-14T07:04:43.435Z,73.76
2023-04-14T07:05:46.724Z,73.91
2023-04-14T07:06:49.600Z,73.69
2023-04-14T07:07:52.715Z,73.56
2023-04-14T07:08:56.591Z,73.57
2023-04-14T07:09:59.674Z,73.50
2023-04-14T07:11:05.259Z,73.50
2023-04-14T07:12:13.834Z,73.48
2023-04-14T07:13:16.758Z,73.53
2023-04-14T07:14:19.775Z,73.61
2023-04-14T07:15:22.690Z,73.56
2023-04-14T07:16:25.563Z,73.54
2023-04-14T07:17:28.518Z,73.38
2023-04-14T07:18:31.937Z,73.34
2023-04-14T07:19:35.091Z,73.33
2023-04-14T07:20:38.160Z,73.30
2023-04-14T07:21:41.047Z,73.16
2023-04-14T07:22:44.040Z,73.09
2023-04-14T07:23:46.882Z,73.02
2023-04-14T07:24:49.930Z,73.04
2023-04-14T07:25:55.260Z,73.03
2023-04-14T07:26:58.101Z,73.00
2023-04-14T07:28:03.741Z,72.99
2023-04-14T07:29:07.402Z,73.00
2023-04-14T07:30:10.957Z,73.11
2023-04-14T07:31:13.886Z,73.23
2023-04-14T07:32:16.817Z,73.16
2023-04-14T07:33:22.305Z,73.14
2023-04-14T07:34:25.536Z,73.18
2023-04-14T07:35:29.245Z,73.22
2023-04-14T07:36:32.888Z,73.24
2023-04-14T07:37:35.736Z,73.35
2023-04-14T07:38:38.648Z,73.40
2023-04-14T07:39:41.694Z,73.40
2023-04-14T07:40:44.730Z,73.51
2023-04-14T07:41:48.050Z,73.59
2023-04-14T07:42:51.152Z,73.31
2023-04-14T07:43:59.387Z,73.20
2023-04-14T07:45:03.960Z,73.08
2023-04-14T07:46:08.756Z,73.00
2023-04-14T07:47:11.912Z,72.96
2023-04-14T07:48:14.893Z,72.90
2023-04-14T07:49:18.317Z,72.57
2023-04-14T07:50:21.252Z,72.76
2023-04-14T07:51:24.168Z,72.91
2023-04-14T07:52:27.147Z,72.95
2023-04-14T07:53:31.478Z,72.96
2023-04-14T07:54:34.815Z,73.16
2023-04-14T07:55:37.739Z,73.29
2023-04-14T07:56:40.681Z,73.16
2023-04-14T07:57:43.708Z,73.18
2023-04-14T07:58:47.224Z,73.30
2023-04-14T07:59:50.017Z,73.22
2023-04-14T08:00:53.093Z,73.08
2023-04-14T08:01:56.415Z,72.83
2023-04-14T08:03:00.830Z,73.08
2023-04-14T08:04:04.148Z,72.96
2023-04-14T08:05:07.978Z,72.83
2023-04-14T08:06:11.868Z,72.87
2023-04-14T08:07:16.181Z,72.70
2023-04-14T08:08:19.737Z,72.87
2023-04-14T08:09:22.608Z,72.77
2023-04-14T08:10:25.881Z,72.79
2023-04-14T08:11:28.730Z,72.78
2023-04-14T08:12:31.792Z,72.73
2023-04-14T08:13:34.979Z,72.57
2023-04-14T08:14:37.967Z,72.71
2023-04-14T08:15:40.829Z,72.63
2023-04-14T08:16:44.061Z,72.56
2023-04-14T08:17:47.102Z,72.53
2023-04-14T08:18:50.048Z,72.42
2023-04-14T08:19:52.931Z,72.28
2023-04-14T08:20:56.463Z,72.55
2023-04-14T08:21:59.581Z,72.69
2023-04-14T08:23:02.614Z,72.64
2023-04-14T08:24:06.615Z,72.54
2023-04-14T08:25:12.866Z,72.51
2023-04-14T08:26:16.214Z,72.62
2023-04-14T08:27:19.475Z,72.72
2023-04-14T08:28:22.811Z,72.89
2023-04-14T08:29:26.416Z,72.94
2023-04-14T08:30:29.780Z,73.15
2023-04-14T08:31:33.565Z,73.21
2023-04-14T08:32:36.860Z,72.94
2023-04-14T08:33:39.969Z,72.79
2023-04-14T08:35:35.317Z,72.87
2023-04-14T08:36:06.888Z,72.72
2023-04-14T08:37:09.924Z,73.10
2023-04-14T08:38:12.818Z,72.86
2023-04-14T08:39:15.731Z,72.69
2023-04-14T08:40:19.449Z,72.75
2023-04-14T08:41:23.031Z,72.63
2023-04-14T08:42:26.339Z,72.76
2023-04-14T08:43:29.628Z,72.70
2023-04-14T08:44:32.697Z,72.78
2023-04-14T08:45:36.832Z,72.72
2023-04-14T08:46:43.006Z,72.84
2023-04-14T08:47:46.799Z,72.71
2023-04-14T08:48:53.874Z,72.76
2023-04-14T08:50:04.888Z,72.61
2023-04-14T08:51:16.674Z,72.72
2023-04-14T08:52:23.501Z,72.76
2023-04-14T08:53:27.776Z,72.64
2023-04-14T08:54:31.367Z,72.66
2023-04-14T08:55:37.355Z,72.79
2023-04-14T08:56:41.970Z,72.86
2023-04-14T08:57:46.639Z,73.09
2023-04-14T08:58:50.940Z,73.20
2023-04-14T08:59:56.961Z,73.09
2023-04-14T09:01:00.524Z,72.94
2023-04-14T09:02:07.901Z,72.98
2023-04-14T09:03:11.625Z,72.95
2023-04-14T09:04:15.408Z,72.96
2023-04-14T09:05:19.223Z,72.76
2023-04-14T09:06:23.457Z,72.67
2023-04-14T09:07:29.530Z,72.57
2023-04-14T09:08:34.659Z,72.72
2023-04-14T09:09:37.507Z,72.84
2023-04-14T09:10:43.232Z,72.80
2023-04-14T09:11:46.860Z,72.96
2023-04-14T09:12:50.487Z,72.97
2023-04-14T09:13:53.639Z,72.91
2023-04-14T09:14:59.984Z,72.88
2023-04-14T09:16:03.592Z,72.94
2023-04-14T09:17:07.414Z,72.87
2023-04-14T09:18:12.092Z,72.98
2023-04-14T09:19:16.660Z,72.93
2023-04-14T09:20:38.605Z,72.83
2023-04-14T09:21:53.886Z,72.81
2023-04-14T09:22:58.220Z,72.61
2023-04-14T09:24:02.078Z,72.59
2023-04-14T09:25:06.131Z,72.43
2023-04-14T09:26:10.494Z,72.28
2023-04-14T09:27:13.737Z,72.04
2023-04-14T09:28:16.979Z,72.24
2023-04-14T09:29:20.133Z,72.27
2023-04-14T09:30:23.184Z,72.27
2023-04-14T09:31:27.249Z,72.20
2023-04-14T09:32:31.155Z,72.33
2023-04-14T09:33:39.554Z,72.39
2023-04-14T09:34:56.630Z,72.76
2023-04-14T09:36:01.384Z,72.88
2023-04-14T09:37:06.539Z,72.44
2023-04-14T09:38:09.505Z,72.07
2023-04-14T09:39:18.495Z,71.92
2023-04-14T09:40:31.589Z,72.06
2023-04-14T09:41:34.440Z,71.88
2023-04-14T09:42:39.744Z,71.81
2023-04-14T09:43:43.189Z,72.04
2023-04-14T09:44:55.756Z,71.89
2023-04-14T09:46:05.724Z,71.90
2023-04-14T09:47:08.753Z,71.86
2023-04-14T09:48:13.181Z,71.81
2023-04-14T09:49:16.229Z,71.72
2023-04-14T09:50:19.284Z,71.62
2023-04-14T09:51:30.105Z,71.46
2023-04-14T09:52:51.522Z,71.61
2023-04-14T09:53:54.984Z,71.85
2023-04-14T09:54:58.989Z,71.77
2023-04-14T09:56:05.113Z,71.75
2023-04-14T09:57:08.566Z,71.61
2023-04-14T09:58:11.588Z,71.86
2023-04-14T09:59:14.466Z,71.82
2023-04-14T10:00:22.307Z,71.73
2023-04-14T10:01:30.599Z,71.85
2023-04-14T10:02:48.541Z,71.84
2023-04-14T10:03:51.500Z,71.93
2023-04-14T10:05:05.582Z,71.88
2023-04-14T10:06:15.851Z,72.02
2023-04-14T10:07:18.945Z,72.21
2023-04-14T10:08:22.353Z,72.31
2023-04-14T10:09:28.007Z,72.57
2023-04-14T10:10:31.840Z,72.74
2023-04-14T10:11:35.585Z,72.82
2023-04-14T10:12:41.941Z,72.77
2023-04-14T10:13:46.564Z,72.66
2023-04-14T10:14:49.534Z,72.77
2023-04-14T10:15:52.697Z,72.82
2023-04-14T10:16:56.673Z,72.87
2023-04-14T10:17:59.897Z,72.99
2023-04-14T10:19:03.595Z,73.14
2023-04-14T10:20:08.221Z,73.45
2023-04-14T10:21:11.666Z,73.59
2023-04-14T10:22:16.869Z,73.66
2023-04-14T10:23:19.853Z,73.63
2023-04-14T10:24:25.018Z,73.92
2023-04-14T10:25:29.478Z,74.06
2023-04-14T10:26:32.350Z,73.90
2023-04-14T10:27:36.115Z,73.90
2023-04-14T10:28:45.644Z,73.93
2023-04-14T10:29:49.037Z,73.70
2023-04-14T10:30:53.928Z,73.81
2023-04-14T10:32:05.550Z,73.68
2023-04-14T10:33:09.760Z,73.32
2023-04-14T10:34:14.712Z,73.11
2023-04-14T10:35:20.726Z,72.88
2023-04-14T10:36:29.253Z,72.97
2023-04-14T10:37:33.163Z,72.88
2023-04-14T10:38:44.072Z,72.56
2023-04-14T10:39:58.600Z,72.18
2023-04-14T10:41:01.548Z,71.77
2023-04-14T10:42:04.432Z,71.53
2023-04-14T10:43:12.560Z,71.47
2023-04-14T10:44:45.076Z,71.28
2023-04-14T10:45:56.153Z,71.30
2023-04-14T10:47:02.486Z,71.31
2023-04-14T10:48:06.074Z,71.10
2023-04-14T10:49:12.344Z,70.97
2023-04-14T10:50:18.215Z,71.76
2023-04-14T10:51:35.831Z,71.12
2023-04-14T10:52:50.070Z,70.52
2023-04-14T10:53:55.830Z,69.12
2023-04-14T10:55:08.167Z,69.83
2023-04-14T10:56:11.377Z,68.63
2023-04-14T10:57:15.604Z,69.21
2023-04-14T10:58:20.627Z,68.70
2023-04-14T10:59:28.991Z,68.24
2023-04-14T11:00:32.565Z,67.78
2023-04-14T11:01:38.089Z,67.49
2023-04-14T11:02:58.446Z,66.75
2023-04-14T11:04:21.694Z,67.30
2023-04-14T11:05:25.205Z,67.10
2023-04-14T11:06:53.546Z,67.33
2023-04-14T11:08:01.572Z,67.14
2023-04-14T11:09:23.231Z,66.60
2023-04-14T11:10:26.949Z,66.28
2023-04-14T11:11:29.880Z,66.59
2023-04-14T11:12:43.399Z,66.20
2023-04-14T11:14:12.273Z,65.28
2023-04-14T11:15:16.559Z,65.73
2023-04-14T11:16:27.103Z,65.53
2023-04-14T11:17:33.218Z,65.20
2023-04-14T11:18:46.333Z,65.33
2023-04-14T11:19:54.437Z,64.88
2023-04-14T11:21:06.242Z,65.57
2023-04-14T11:22:09.021Z,65.25
2023-04-14T11:23:16.641Z,64.99
2023-04-14T11:24:23.430Z,65.39
2023-04-14T11:25:26.405Z,65.38
2023-04-14T11:26:29.557Z,65.20
2023-04-14T11:27:33.538Z,64.96
2023-04-14T11:28:39.510Z,63.95
2023-04-14T11:29:42.637Z,64.41
2023-04-14T11:30:47.167Z,64.82
2023-04-14T11:32:05.793Z,64.25
2023-04-14T11:33:08.960Z,63.82
2023-04-14T11:34:12.253Z,64.05
2023-04-14T11:35:16.100Z,64.39
2023-04-14T11:36:19.265Z,64.05
2023-04-14T11:37:22.809Z,63.99
2023-04-14T11:38:26.075Z,63.90
2023-04-14T11:39:29.936Z,64.17
2023-04-14T11:40:36.684Z,64.16
2023-04-14T11:41:40.004Z,64.34
2023-04-14T11:42:47.471Z,64.38
2023-04-14T11:43:50.708Z,64.48
2023-04-14T11:45:00.099Z,64.35
2023-04-14T11:46:05.613Z,64.27
2023-04-14T11:47:08.723Z,64.08
2023-04-14T11:48:13.321Z,64.32
2023-04-14T11:49:16.134Z,64.37
2023-04-14T11:50:19.246Z,63.98
2023-04-14T11:51:29.813Z,64.33
2023-04-14T11:52:34.794Z,64.53
2023-04-14T11:53:40.662Z,64.80
2023-04-14T11:54:43.638Z,64.84
2023-04-14T11:55:49.735Z,64.92
2023-04-14T11:56:52.627Z,65.16
2023-04-14T11:57:57.057Z,65.10
2023-04-14T11:59:04.884Z,65.41
2023-04-14T12:00:11.885Z,65.57
2023-04-14T12:01:15.021Z,65.70
2023-04-14T12:02:20.454Z,65.34
2023-04-14T12:03:35.714Z,65.31
2023-04-14T12:04:40.286Z,65.29
2023-04-14T12:05:43.838Z,65.39
2023-04-14T12:06:47.173Z,65.22
2023-04-14T12:07:50.397Z,65.10
2023-04-14T12:09:03.701Z,64.64
2023-04-14T12:10:07.819Z,64.56
2023-04-14T12:11:15.260Z,64.75
2023-04-14T12:12:20.228Z,64.30
2023-04-14T12:13:24.118Z,64.02
2023-04-14T12:14:27.090Z,64.07
2023-04-14T12:15:36.086Z,64.21
2023-04-14T12:16:39.499Z,64.31
2023-04-14T12:17:42.838Z,63.95
2023-04-14T12:18:46.240Z,64.01
2023-04-14T12:19:49.185Z,64.16
2023-04-14T12:21:01.345Z,64.09
2023-04-14T12:22:05.566Z,63.52
2023-04-14T12:23:08.916Z,63.72
2023-04-14T12:24:11.751Z,63.80
2023-04-14T12:25:14.707Z,63.82
2023-04-14T12:26:20.188Z,63.85
2023-04-14T12:27:25.171Z,63.75
2023-04-14T12:28:29.722Z,63.55
2023-04-14T12:29:34.825Z,63.65
2023-04-14T12:30:38.088Z,63.89
2023-04-14T12:31:44.582Z,64.07
2023-04-14T12:32:47.769Z,64.16
2023-04-14T12:33:50.659Z,64.29
2023-04-14T12:34:58.587Z,63.95
2023-04-14T12:36:05.158Z,64.05
2023-04-14T12:37:12.315Z,64.15
2023-04-14T12:38:15.218Z,64.07
2023-04-14T12:39:18.877Z,64.36
2023-04-14T12:40:38.203Z,64.18
2023-04-14T12:41:42.061Z,64.29
2023-04-14T12:42:48.157Z,64.56
2023-04-14T12:43:51.252Z,64.95
2023-04-14T12:44:59.194Z,64.72
2023-04-14T12:46:06.282Z,64.86
2023-04-14T12:47:09.512Z,64.90
2023-04-14T12:48:14.379Z,65.06
2023-04-14T12:49:37.720Z,65.00
2023-04-14T12:50:40.686Z,64.89
2023-04-14T12:51:43.609Z,65.14
2023-04-14T12:52:46.918Z,65.08
2023-04-14T12:53:50.497Z,65.14
2023-04-14T12:54:53.547Z,64.99
2023-04-14T12:56:10.878Z,64.96
2023-04-14T12:57:13.875Z,64.93
2023-04-14T12:58:16.834Z,65.10
2023-04-14T12:59:19.858Z,65.16
2023-04-14T13:00:24.060Z,65.19
2023-04-14T13:01:27.149Z,65.25
2023-04-14T13:02:30.914Z,65.27
2023-04-14T13:03:41.852Z,65.18
2023-04-14T13:04:45.315Z,65.27
2023-04-14T13:05:48.204Z,65.48
2023-04-14T13:06:51.274Z,65.18
2023-04-14T13:07:54.851Z,65.15
2023-04-14T13:08:58.324Z,65.15
2023-04-14T13:10:02.824Z,65.21
2023-04-14T13:11:06.267Z,65.26
2023-04-14T13:12:09.743Z,65.26
2023-04-14T13:13:12.892Z,65.24
2023-04-14T13:14:16.643Z,65.08
2023-04-14T13:16:11.920Z,65.12
2023-04-14T13:16:42.682Z,65.10
2023-04-14T13:17:45.700Z,65.23
2023-04-14T13:18:49.289Z,65.27
2023-04-14T13:19:52.225Z,65.30
2023-04-14T13:20:56.181Z,65.37
2023-04-14T13:21:59.073Z,65.40
2023-04-14T13:23:02.246Z,65.42
2023-04-14T13:24:07.022Z,65.46
2023-04-14T13:25:09.965Z,65.43
2023-04-14T13:26:13.401Z,65.52
2023-04-14T13:27:17.240Z,65.64
2023-04-14T13:28:20.622Z,65.70
2023-04-14T13:29:23.506Z,65.69
2023-04-14T13:30:26.539Z,66.19
2023-04-14T13:31:29.772Z,66.42
2023-04-14T13:32:32.891Z,65.65
2023-04-14T13:33:36.005Z,64.94
2023-04-14T13:34:39.819Z,65.29
2023-04-14T13:35:43.683Z,64.62
2023-04-14T13:36:46.897Z,63.82
2023-04-14T13:37:49.993Z,62.42
2023-04-14T13:38:53.067Z,62.12
2023-04-14T13:39:56.409Z,60.13
2023-04-14T13:40:59.479Z,60.58
2023-04-14T13:42:02.500Z,58.84
2023-04-14T13:43:05.569Z,59.16
2023-04-14T13:44:08.471Z,58.03
2023-04-14T13:45:11.815Z,57.49
2023-04-14T13:46:15.148Z,57.90
2023-04-14T13:47:19.141Z,57.17
2023-04-14T13:48:22.316Z,55.20
2023-04-14T13:49:25.074Z,53.19
2023-04-14T13:50:28.213Z,54.64
2023-04-14T13:51:32.946Z,55.33
2023-04-14T13:52:36.474Z,53.37
2023-04-14T13:53:39.300Z,53.59
2023-04-14T13:54:42.485Z,52.26
2023-04-14T13:55:45.916Z,51.95
2023-04-14T13:56:48.915Z,46.69
2023-04-14T13:57:53.590Z,49.53
2023-04-14T13:58:56.702Z,49.87
2023-04-14T13:59:59.770Z,49.16
2023-04-14T14:01:12.330Z,48.58
2023-04-14T14:02:15.560Z,47.91
2023-04-14T14:03:19.053Z,48.01
2023-04-14T14:04:22.471Z,46.34
2023-04-14T14:05:26.451Z,46.36